Time,TemperatureF,DewpointF,PressureIn,WindDirection,WindDirectionDegrees,WindSpeedMPH,WindSpeedGustMPH,Humidity,HourlyPrecipIn,Conditions,Clouds,dailyrainin,SolarRadiationWatts/m^2,SoftwareType,DateUTC
2013-07-13 00:01:00,88.0,64.0,-100.00,SE,126,3.0,9.0,45,0.00,,,0.00,0.000000,,2013-07-13 05:01:00,
2013-07-13 00:33:00,86.0,65.0,-100.00,SE,135,3.0,9.0,49,0.00,,,0.00,0.000000,,2013-07-13 05:33:00,
2013-07-13 00:42:00,86.0,65.0,-100.00,SE,135,3.0,9.0,49,0.00,,,0.00,0.000000,,2013-07-13 05:42:00,
2013-07-13 00:52:00,86.0,65.0,-100.00,SE,135,3.0,9.0,49,0.00,,,0.00,0.000000,,2013-07-13 05:52:00,
2013-07-13 01:01:00,86.0,65.0,-100.00,SE,135,3.0,9.0,49,0.00,,,0.00,0.000000,,2013-07-13 06:01:00,
2013-07-13 01:32:00,85.0,64.0,-100.00,East,79,3.0,10.0,50,0.00,,,0.00,0.000000,,2013-07-13 06:32:00,
2013-07-13 01:43:00,85.0,64.0,-100.00,East,79,3.0,10.0,50,0.00,,,0.00,0.000000,,2013-07-13 06:43:00,
2013-07-13 01:52:00,85.0,64.0,-100.00,East,79,3.0,10.0,50,0.00,,,0.00,0.000000,,2013-07-13 06:52:00,
2013-07-13 02:02:00,85.0,64.0,-100.00,East,79,3.0,10.0,50,0.00,,,0.00,0.000000,,2013-07-13 07:02:00,
2013-07-13 02:33:00,84.0,67.0,-100.00,East,95,5.0,15.0,56,0.00,,,0.00,0.000000,,2013-07-13 07:33:00,
2013-07-13 02:44:00,84.0,67.0,-100.00,East,95,5.0,15.0,56,0.00,,,0.00,0.000000,,2013-07-13 07:44:00,
2013-07-13 02:53:00,84.0,67.0,-100.00,East,95,5.0,15.0,56,0.00,,,0.00,0.000000,,2013-07-13 07:53:00,
2013-07-13 03:01:00,84.0,67.0,-100.00,East,95,5.0,15.0,56,0.00,,,0.00,0.000000,,2013-07-13 08:01:00,
2013-07-13 03:33:00,83.0,67.0,-100.00,SE,129,5.0,12.0,59,0.00,,,0.00,0.000000,,2013-07-13 08:33:00,
2013-07-13 03:43:00,83.0,67.0,-100.00,SE,129,5.0,12.0,59,0.00,,,0.00,0.000000,,2013-07-13 08:43:00,
2013-07-13 03:52:00,83.0,67.0,-100.00,SE,129,5.0,12.0,59,0.00,,,0.00,0.000000,,2013-07-13 08:52:00,
2013-07-13 04:02:00,83.0,67.0,-100.00,SE,129,5.0,12.0,59,0.00,,,0.00,0.000000,,2013-07-13 09:02:00,
2013-07-13 05:32:00,81.0,68.0,-100.00,SE,126,6.0,12.0,64,-99.99,,,0.00,0.000000,,2013-07-13 10:32:00,
2013-07-13 05:43:00,81.0,68.0,-100.00,SE,126,6.0,12.0,64,-99.99,,,0.00,0.000000,,2013-07-13 10:43:00,
2013-07-13 05:52:00,81.0,68.0,-100.00,SE,126,6.0,12.0,64,-99.99,,,0.00,0.000000,,2013-07-13 10:52:00,
2013-07-13 06:02:00,81.0,68.0,-100.00,SE,126,6.0,12.0,64,-99.99,,,0.00,0.000000,,2013-07-13 11:02:00,
2013-07-13 07:32:00,79.0,68.0,-100.00,SE,124,5.0,12.0,70,-99.99,,,0.00,12.000000,,2013-07-13 12:32:00,
2013-07-13 07:43:00,79.0,68.0,-100.00,SE,124,5.0,12.0,70,-99.99,,,0.00,12.000000,,2013-07-13 12:43:00,
2013-07-13 07:52:00,79.0,68.0,-100.00,SE,124,5.0,12.0,70,-99.99,,,0.00,12.000000,,2013-07-13 12:52:00,
2013-07-13 08:01:00,79.0,68.0,-100.00,SE,124,5.0,12.0,70,-99.99,,,0.00,12.000000,,2013-07-13 13:01:00,
2013-07-13 08:32:00,82.0,69.0,-100.00,SE,124,5.0,12.0,64,0.00,,,0.00,124.000000,,2013-07-13 13:32:00,
2013-07-13 08:43:00,82.0,69.0,-100.00,SE,124,5.0,12.0,64,0.00,,,0.00,124.000000,,2013-07-13 13:43:00,
2013-07-13 08:53:00,82.0,69.0,-100.00,SE,124,5.0,12.0,64,0.00,,,0.00,124.000000,,2013-07-13 13:53:00,
2013-07-13 09:02:00,82.0,69.0,-100.00,SE,124,5.0,12.0,64,0.00,,,0.00,124.000000,,2013-07-13 14:02:00,
2013-07-13 09:32:00,86.0,70.0,-100.00,ESE,117,6.0,16.0,60,0.00,,,0.00,311.000000,,2013-07-13 14:32:00,
2013-07-13 09:43:00,86.0,70.0,-100.00,ESE,117,6.0,16.0,60,0.00,,,0.00,311.000000,,2013-07-13 14:43:00,
2013-07-13 09:53:00,86.0,70.0,-100.00,ESE,117,6.0,16.0,60,0.00,,,0.00,311.000000,,2013-07-13 14:53:00,
2013-07-13 10:02:00,86.0,70.0,-100.00,ESE,117,6.0,16.0,60,0.00,,,0.00,311.000000,,2013-07-13 15:02:00,
2013-07-13 10:33:00,89.0,70.0,-100.00,SE,128,6.0,12.0,53,0.00,,,0.00,503.000000,,2013-07-13 15:33:00,
2013-07-13 10:43:00,89.0,70.0,-100.00,SE,128,6.0,12.0,53,0.00,,,0.00,503.000000,,2013-07-13 15:43:00,
2013-07-13 10:53:00,89.0,70.0,-100.00,SE,128,6.0,12.0,53,0.00,,,0.00,503.000000,,2013-07-13 15:53:00,
2013-07-13 11:02:00,89.0,70.0,-100.00,SE,128,6.0,12.0,53,0.00,,,0.00,503.000000,,2013-07-13 16:02:00,
2013-07-13 11:33:00,92.0,68.0,-100.00,SSE,153,8.0,13.0,46,0.00,,,0.00,719.000000,,2013-07-13 16:33:00,
2013-07-13 11:43:00,92.0,68.0,-100.00,SSE,153,8.0,13.0,46,0.00,,,0.00,719.000000,,2013-07-13 16:43:00,
2013-07-13 11:53:00,92.0,68.0,-100.00,SSE,153,8.0,13.0,46,0.00,,,0.00,719.000000,,2013-07-13 16:53:00,
2013-07-13 12:01:00,92.0,68.0,-100.00,SSE,153,8.0,13.0,46,0.00,,,0.00,719.000000,,2013-07-13 17:01:00,
2013-07-13 12:33:00,97.0,70.0,-100.00,ESE,112,4.0,11.0,42,0.00,,,0.00,866.000000,,2013-07-13 17:33:00,
2013-07-13 12:43:00,97.0,70.0,-100.00,ESE,112,4.0,11.0,42,0.00,,,0.00,866.000000,,2013-07-13 17:43:00,
2013-07-13 12:52:00,97.0,70.0,-100.00,ESE,112,4.0,11.0,42,0.00,,,0.00,866.000000,,2013-07-13 17:52:00,
2013-07-13 13:01:00,97.0,70.0,-100.00,ESE,112,4.0,11.0,42,0.00,,,0.00,866.000000,,2013-07-13 18:01:00,
2013-07-13 13:32:00,100.0,68.0,-100.00,ESE,107,3.0,8.0,36,0.00,,,0.00,940.000000,,2013-07-13 18:32:00,
2013-07-13 13:44:00,100.0,68.0,-100.00,ESE,107,3.0,8.0,36,0.00,,,0.00,940.000000,,2013-07-13 18:44:00,
2013-07-13 13:53:00,100.0,68.0,-100.00,ESE,107,3.0,8.0,36,0.00,,,0.00,940.000000,,2013-07-13 18:53:00,
2013-07-13 14:02:00,100.0,68.0,-100.00,ESE,107,3.0,8.0,36,0.00,,,0.00,940.000000,,2013-07-13 19:02:00,
2013-07-13 14:32:00,97.0,62.0,-100.00,WNW,298,4.0,8.0,32,0.00,,,0.00,784.000000,,2013-07-13 19:32:00,
2013-07-13 14:44:00,97.0,62.0,-100.00,WNW,298,4.0,8.0,32,0.00,,,0.00,784.000000,,2013-07-13 19:44:00,
2013-07-13 14:52:00,97.0,62.0,-100.00,WNW,298,4.0,8.0,32,0.00,,,0.00,784.000000,,2013-07-13 19:52:00,
2013-07-13 15:01:00,97.0,62.0,-100.00,WNW,298,4.0,8.0,32,0.00,,,0.00,784.000000,,2013-07-13 20:01:00,
2013-07-13 15:33:00,99.0,64.0,-100.00,North,8,4.0,7.0,32,0.00,,,0.00,769.000000,,2013-07-13 20:33:00,
2013-07-13 15:43:00,99.0,64.0,-100.00,North,8,4.0,7.0,32,0.00,,,0.00,769.000000,,2013-07-13 20:43:00,
2013-07-13 15:53:00,99.0,64.0,-100.00,North,8,4.0,7.0,32,0.00,,,0.00,769.000000,,2013-07-13 20:53:00,
2013-07-13 16:02:00,99.0,64.0,-100.00,North,8,4.0,7.0,32,0.00,,,0.00,769.000000,,2013-07-13 21:02:00,
2013-07-13 16:32:00,101.0,65.0,-100.00,ENE,72,5.0,12.0,31,0.00,,,0.00,754.000000,,2013-07-13 21:32:00,
2013-07-13 16:43:00,101.0,65.0,-100.00,ENE,72,5.0,12.0,31,0.00,,,0.00,754.000000,,2013-07-13 21:43:00,
2013-07-13 16:53:00,101.0,65.0,-100.00,ENE,72,5.0,12.0,31,0.00,,,0.00,754.000000,,2013-07-13 21:53:00,
2013-07-13 17:01:00,101.0,65.0,-100.00,ENE,72,5.0,12.0,31,0.00,,,0.00,754.000000,,2013-07-13 22:01:00,
2013-07-13 17:32:00,101.0,64.0,-100.00,NE,42,8.0,15.0,30,0.00,,,0.00,520.000000,,2013-07-13 22:32:00,
2013-07-13 17:43:00,101.0,64.0,-100.00,NE,42,8.0,15.0,30,0.00,,,0.00,520.000000,,2013-07-13 22:43:00,
2013-07-13 17:53:00,101.0,64.0,-100.00,NE,42,8.0,15.0,30,0.00,,,0.00,520.000000,,2013-07-13 22:53:00,
2013-07-13 18:01:00,101.0,64.0,-100.00,NE,42,8.0,15.0,30,0.00,,,0.00,520.000000,,2013-07-13 23:01:00,
2013-07-13 18:32:00,100.0,62.0,-100.00,ENE,57,6.0,16.0,29,0.00,,,0.00,451.000000,,2013-07-13 23:32:00,
2013-07-13 18:42:00,100.0,62.0,-100.00,ENE,57,6.0,16.0,29,0.00,,,0.00,451.000000,,2013-07-13 23:42:00,
2013-07-13 18:53:00,100.0,62.0,-100.00,ENE,57,6.0,16.0,29,0.00,,,0.00,451.000000,,2013-07-13 23:53:00,
2013-07-13 19:01:00,100.0,62.0,-100.00,ENE,57,6.0,16.0,29,0.00,,,0.00,451.000000,,2013-07-14 00:01:00,
2013-07-13 19:33:00,97.0,59.0,-100.00,NE,54,8.0,13.0,29,0.00,,,0.00,351.000000,,2013-07-14 00:33:00,
2013-07-13 19:42:00,97.0,59.0,-100.00,NE,54,8.0,13.0,29,0.00,,,0.00,351.000000,,2013-07-14 00:42:00,
2013-07-13 19:53:00,97.0,59.0,-100.00,NE,54,8.0,13.0,29,0.00,,,0.00,351.000000,,2013-07-14 00:53:00,
2013-07-13 20:02:00,97.0,59.0,-100.00,NE,54,8.0,13.0,29,0.00,,,0.00,351.000000,,2013-07-14 01:02:00,
2013-07-13 20:32:00,93.0,60.0,-100.00,ENE,67,5.0,11.0,33,0.00,,,0.00,149.000000,,2013-07-14 01:32:00,
2013-07-13 20:43:00,93.0,60.0,-100.00,ENE,67,5.0,11.0,33,0.00,,,0.00,149.000000,,2013-07-14 01:43:00,
2013-07-13 20:52:00,93.0,60.0,-100.00,ENE,67,5.0,11.0,33,0.00,,,0.00,149.000000,,2013-07-14 01:52:00,
2013-07-13 21:01:00,93.0,60.0,-100.00,ENE,67,5.0,11.0,33,0.00,,,0.00,149.000000,,2013-07-14 02:01:00,
2013-07-13 21:32:00,89.0,57.0,-100.00,ENE,67,5.0,11.0,34,0.00,,,0.00,13.000000,,2013-07-14 02:32:00,
2013-07-13 21:43:00,89.0,57.0,-100.00,ENE,67,5.0,11.0,34,0.00,,,0.00,13.000000,,2013-07-14 02:43:00,
2013-07-13 21:53:00,89.0,57.0,-100.00,ENE,67,5.0,11.0,34,0.00,,,0.00,13.000000,,2013-07-14 02:53:00,
2013-07-13 22:01:00,89.0,57.0,-100.00,ENE,67,5.0,11.0,34,0.00,,,0.00,13.000000,,2013-07-14 03:01:00,
2013-07-13 22:32:00,87.0,58.0,-100.00,ENE,73,4.0,11.0,37,0.00,,,0.00,0.000000,,2013-07-14 03:32:00,
2013-07-13 22:43:00,87.0,58.0,-100.00,ENE,73,4.0,11.0,37,0.00,,,0.00,0.000000,,2013-07-14 03:43:00,
2013-07-13 22:53:00,87.0,58.0,-100.00,ENE,73,4.0,11.0,37,0.00,,,0.00,0.000000,,2013-07-14 03:53:00,
2013-07-13 23:02:00,87.0,58.0,-100.00,ENE,73,4.0,11.0,37,0.00,,,0.00,0.000000,,2013-07-14 04:02:00,
2013-07-13 23:32:00,84.0,58.0,-100.00,ESE,117,6.0,15.0,42,0.00,,,0.00,0.000000,,2013-07-14 04:32:00,
2013-07-13 23:42:00,84.0,58.0,-100.00,ESE,117,6.0,15.0,42,0.00,,,0.00,0.000000,,2013-07-14 04:42:00,
2013-07-13 23:54:00,84.0,58.0,-100.00,ESE,117,6.0,15.0,42,0.00,,,0.00,0.000000,,2013-07-14 04:54:00,